Aviation Digital Data Service (ADDS)

Output produced by METARs form (0021 UTC 17 July 2019)
found at http://www.aviationweather.gov/metar/data/
 
TAF FYWE 162300Z 1700/1709 04003KT CAVOK
       
TAF FYGF 162300Z 1700/1709 15003KT CAVOK
       
FYWH 170000Z 25004KT CAVOK 06/M14 Q1029 NOSIG
TAF FYWH 162200Z 1700/1800 06003KT CAVOK 
     BECMG 1701/1703 30004KT 
     BECMG 1708/1710 01011KT 
     BECMG 1716/1718 09004KT
       
FYKM 170000Z AUTO 06003KT //// // ////// 12/05 Q1024
FYKT 170000Z AUTO 02003KT //// // ////// 14/M12 Q1023
TAF FYKT 162200Z 1700/1800 00000KT CAVOK 
     BECMG 1701/1703 21004KT 
     BECMG 1707/1709 02005KT 
     BECMG 1710/1712 32010KT 
     BECMG 1716/1718 18004KT
       
FYLZ 170000Z AUTO 20001KT //// // ////// 09/07 Q1021
TAF FYLZ 162300Z 1700/1709 17004KT CAVOK
       
FYML 170000Z AUTO 10003KT //// // ////// 11/M10 Q1026
FYOA 170000Z AUTO 09003KT //// // ////// 14/M07 Q1022
TAF FYOA 162300Z 1700/1709 10003KT CAVOK
       
FYRU 170000Z AUTO 17003KT //// // ////// 14/M00 Q1027
TAF FYRU 162300Z 1700/1709 12004KT CAVOK
       
FYWB 170000Z AUTO 06002KT //// // ////// 15/12 Q1020
TAF FYWB 162200Z 1700/1800 17007KT 0700 FG OVC007 
     BECMG 1705/1707 32004KT 9999 NSW OVC010 
     BECMG 1709/1711 23010KT CAVOK 
     BECMG 1719/1721 9999 BKN015 
     TEMPO 1722/1800 06003KT 0800 FG OVC009